createdAt,value
2023-08-15T00:01:19.374Z,7.05
2023-08-15T00:04:21.614Z,4.55
2023-08-15T00:07:23.984Z,4.40
2023-08-15T00:10:26.314Z,5.63
2023-08-15T00:13:29.758Z,4.20
2023-08-15T00:16:31.976Z,4.07
2023-08-15T00:19:34.362Z,4.30
2023-08-15T00:22:36.592Z,7.50
2023-08-15T00:25:38.824Z,3.97
2023-08-15T00:28:43.189Z,5.25
2023-08-15T00:31:45.410Z,4.25
2023-08-15T00:34:47.884Z,7.65
2023-08-15T00:37:50.120Z,3.47
2023-08-15T00:40:52.774Z,5.82
2023-08-15T00:43:57.363Z,4.65
2023-08-15T00:47:02.107Z,3.33
2023-08-15T00:50:07.301Z,3.88
2023-08-15T00:53:12.310Z,5.15
2023-08-15T00:56:15.501Z,6.53
2023-08-15T00:59:19.105Z,7.72
2023-08-15T01:02:21.386Z,6.35
2023-08-15T01:05:24.558Z,6.70
2023-08-15T01:08:26.775Z,4.53
2023-08-15T01:11:34.087Z,6.28
2023-08-15T01:14:41.167Z,6.03
2023-08-15T01:17:47.290Z,5.25
2023-08-15T01:20:50.722Z,5.78
2023-08-15T01:23:54.451Z,5.45
2023-08-15T01:26:56.742Z,5.88
2023-08-15T01:30:01.421Z,7.18
2023-08-15T01:33:08.405Z,8.18
2023-08-15T01:36:15.713Z,4.75
2023-08-15T01:39:24.633Z,7.13
2023-08-15T01:42:27.365Z,4.68
2023-08-15T01:45:30.470Z,8.43
2023-08-15T01:48:32.818Z,6.75
2023-08-15T01:51:36.024Z,6.80
2023-08-15T01:54:39.705Z,5.35
2023-08-15T01:57:41.980Z,7.40
2023-08-15T02:00:46.503Z,6.20
2023-08-15T02:03:48.730Z,4.93
2023-08-15T02:06:51.015Z,6.93
2023-08-15T02:09:54.710Z,4.72
2023-08-15T02:12:57.595Z,6.45
2023-08-15T02:15:59.887Z,5.32
2023-08-15T02:19:02.196Z,6.32
2023-08-15T02:22:05.399Z,6.38
2023-08-15T02:25:09.447Z,12.13
2023-08-15T02:28:11.679Z,12.02
2023-08-15T02:31:13.953Z,12.25
2023-08-15T02:34:17.328Z,17.42
2023-08-15T02:37:19.871Z,16.05
2023-08-15T02:40:25.412Z,16.08
2023-08-15T02:43:27.710Z,15.48
2023-08-15T02:46:30.046Z,14.73
2023-08-15T02:49:32.315Z,10.60
2023-08-15T02:52:34.580Z,11.15
2023-08-15T02:55:38.808Z,15.85
2023-08-15T02:58:41.117Z,16.27
2023-08-15T03:01:43.553Z,15.15
2023-08-15T03:04:45.929Z,12.90
2023-08-15T03:07:48.226Z,12.68
2023-08-15T03:10:52.697Z,16.23
2023-08-15T03:13:55.186Z,12.15
2023-08-15T03:16:57.589Z,16.23
2023-08-15T03:19:59.991Z,12.70
2023-08-15T03:23:02.415Z,12.63
2023-08-15T03:26:06.961Z,13.20
2023-08-15T03:29:11.901Z,10.35
2023-08-15T03:32:15.162Z,10.95
2023-08-15T03:35:19.970Z,12.77
2023-08-15T03:38:23.901Z,9.43
2023-08-15T03:41:27.549Z,14.50
2023-08-15T03:44:29.802Z,13.65
2023-08-15T03:47:32.045Z,12.13
2023-08-15T03:50:34.802Z,15.27
2023-08-15T03:53:37.330Z,19.15
2023-08-15T03:56:42.276Z,12.50
2023-08-15T03:59:45.066Z,13.40
2023-08-15T04:02:47.980Z,8.52
2023-08-15T04:05:50.383Z,14.45
2023-08-15T04:08:52.840Z,13.45
2023-08-15T04:11:56.634Z,12.43
2023-08-15T04:14:58.865Z,13.90
2023-08-15T04:18:01.286Z,13.60
2023-08-15T04:21:05.563Z,13.40
2023-08-15T04:24:09.665Z,17.80
2023-08-15T04:27:14.148Z,14.63
2023-08-15T04:30:23.012Z,14.43
2023-08-15T04:33:26.004Z,14.90
2023-08-15T04:36:28.302Z,14.40
2023-08-15T04:39:30.924Z,21.80
2023-08-15T04:42:34.570Z,17.13
2023-08-15T04:45:41.748Z,17.65
2023-08-15T04:48:47.389Z,16.80
2023-08-15T04:51:49.795Z,18.75
2023-08-15T04:54:52.149Z,20.80
2023-08-15T04:57:55.710Z,22.52
2023-08-15T05:00:58.699Z,21.60
2023-08-15T05:04:01.429Z,18.95
2023-08-15T05:07:05.512Z,18.73
2023-08-15T05:10:09.524Z,21.38
2023-08-15T05:13:16.027Z,13.52
2023-08-15T05:16:18.515Z,16.05
2023-08-15T05:19:20.873Z,18.98
2023-08-15T05:22:23.313Z,14.75
2023-08-15T05:25:25.589Z,14.93
2023-08-15T05:28:32.288Z,13.68
2023-08-15T05:31:36.043Z,12.73
2023-08-15T05:34:38.403Z,10.90
2023-08-15T05:37:45.665Z,9.80
2023-08-15T05:40:48.881Z,10.38
2023-08-15T05:43:57.940Z,9.40
2023-08-15T05:47:09.742Z,14.13
2023-08-15T05:50:12.122Z,11.18
2023-08-15T05:53:14.444Z,8.85
2023-08-15T05:56:17.363Z,9.85
2023-08-15T05:59:20.888Z,8.23
2023-08-15T06:02:26.528Z,9.27
2023-08-15T06:05:30.587Z,7.70
2023-08-15T06:08:32.812Z,8.32
2023-08-15T06:11:35.039Z,8.77
2023-08-15T06:14:42.058Z,7.53
2023-08-15T06:17:44.462Z,7.82
2023-08-15T06:20:46.888Z,6.65
2023-08-15T06:23:49.158Z,6.72
2023-08-15T06:26:51.336Z,7.72
2023-08-15T06:29:55.153Z,7.63
2023-08-15T06:33:00.078Z,9.32
2023-08-15T06:36:02.525Z,8.85
2023-08-15T06:39:05.139Z,9.93
2023-08-15T06:42:07.620Z,9.52
2023-08-15T06:45:17.551Z,11.55
2023-08-15T06:48:19.999Z,9.45
2023-08-15T06:51:22.304Z,10.57
2023-08-15T06:54:24.541Z,13.30
2023-08-15T06:57:26.847Z,14.82
2023-08-15T07:00:32.941Z,11.80
2023-08-15T07:03:35.406Z,12.15
2023-08-15T07:06:38.821Z,13.15
2023-08-15T07:09:41.092Z,12.38
2023-08-15T07:12:44.981Z,12.50
2023-08-15T07:15:54.858Z,12.93
2023-08-15T07:18:57.054Z,17.55
2023-08-15T07:21:59.338Z,11.88
2023-08-15T07:25:01.793Z,14.73
2023-08-15T07:28:05.459Z,17.30
2023-08-15T07:31:09.008Z,14.15
2023-08-15T07:34:11.314Z,12.23
2023-08-15T07:37:13.584Z,17.33
2023-08-15T07:40:20.961Z,15.50
2023-08-15T07:43:24.829Z,17.02
2023-08-15T07:46:28.929Z,18.08
2023-08-15T07:49:31.488Z,19.30
2023-08-15T07:52:33.675Z,22.25
2023-08-15T07:55:38.194Z,18.65
2023-08-15T07:58:40.433Z,13.38
2023-08-15T08:01:44.179Z,14.20
2023-08-15T08:04:46.787Z,13.85
2023-08-15T08:07:49.257Z,15.88
2023-08-15T08:10:52.266Z,19.13
2023-08-15T08:13:54.454Z,19.50
2023-08-15T08:16:58.046Z,16.35
2023-08-15T08:20:00.334Z,15.70
2023-08-15T08:23:02.650Z,18.65
2023-08-15T08:26:04.995Z,23.15
2023-08-15T08:29:07.267Z,15.57
2023-08-15T08:32:10.890Z,20.58
2023-08-15T08:35:16.349Z,14.38
2023-08-15T08:38:20.479Z,19.00
2023-08-15T08:41:23.391Z,17.70
2023-08-15T08:44:26.416Z,22.63
2023-08-15T08:47:31.574Z,22.80
2023-08-15T08:50:34.025Z,16.73
2023-08-15T08:53:36.387Z,18.13
2023-08-15T08:56:41.620Z,20.85
2023-08-15T08:59:44.845Z,20.27
2023-08-15T09:02:48.696Z,17.15
2023-08-15T09:05:51.525Z,19.05
2023-08-15T09:08:54.999Z,20.30
2023-08-15T09:11:57.370Z,15.55
2023-08-15T09:14:59.680Z,18.55
2023-08-15T09:18:05.976Z,15.18
2023-08-15T09:21:08.489Z,17.25
2023-08-15T09:24:11.368Z,14.55
2023-08-15T09:27:13.773Z,20.35
2023-08-15T09:30:18.090Z,18.20
2023-08-15T09:33:22.022Z,20.63
2023-08-15T09:36:26.419Z,16.00
2023-08-15T09:39:29.250Z,19.90
2023-08-15T09:42:31.855Z,16.50
2023-08-15T09:45:34.186Z,15.00
2023-08-15T09:48:37.949Z,15.82
2023-08-15T09:51:40.616Z,14.50
2023-08-15T09:54:44.239Z,16.92
2023-08-15T09:57:47.490Z,12.50
2023-08-15T10:00:51.532Z,13.43
2023-08-15T10:03:56.060Z,14.10
2023-08-15T10:06:59.168Z,13.32
2023-08-15T10:10:04.395Z,15.48
2023-08-15T10:13:11.718Z,10.02
2023-08-15T10:16:16.704Z,13.57
2023-08-15T10:19:21.918Z,17.52
2023-08-15T10:22:25.348Z,14.05
2023-08-15T10:25:37.611Z,11.98
2023-08-15T10:28:43.546Z,13.27
2023-08-15T10:31:46.110Z,11.18
2023-08-15T10:34:53.578Z,12.15
2023-08-15T10:37:57.071Z,13.10
2023-08-15T10:41:04.336Z,11.25
2023-08-15T10:44:08.378Z,14.57
2023-08-15T10:47:23.453Z,13.05
2023-08-15T10:50:27.685Z,10.55
2023-08-15T10:53:30.550Z,15.52
2023-08-15T10:56:34.434Z,12.40
2023-08-15T10:59:37.295Z,11.05
2023-08-15T11:02:39.597Z,9.55
2023-08-15T11:05:43.370Z,9.57
2023-08-15T11:08:49.336Z,12.85
2023-08-15T11:11:52.248Z,13.43
2023-08-15T11:14:57.678Z,5.82
2023-08-15T11:18:00.872Z,12.30
2023-08-15T11:21:09.593Z,9.48
2023-08-15T11:24:14.834Z,8.95
2023-08-15T11:27:20.190Z,9.52
2023-08-15T11:30:22.925Z,13.48
2023-08-15T11:33:26.424Z,12.98
2023-08-15T11:36:53.971Z,14.05
2023-08-15T11:40:27.165Z,8.85
2023-08-15T11:43:48.661Z,9.57
2023-08-15T11:50:37.943Z,7.28
2023-08-15T11:54:28.557Z,11.50
2023-08-15T11:57:36.851Z,10.15
2023-08-15T12:00:39.477Z,10.27
2023-08-15T12:03:42.442Z,10.85
2023-08-15T12:06:51.156Z,11.95
2023-08-15T12:10:33.012Z,9.23
2023-08-15T12:13:53.114Z,9.90
2023-08-15T12:17:00.113Z,10.38
2023-08-15T12:20:07.403Z,8.40
2023-08-15T12:23:15.345Z,9.52
2023-08-15T12:26:22.703Z,15.55
2023-08-15T12:30:11.023Z,10.43
2023-08-15T12:32:47.498Z,12.63
2023-08-15T12:35:50.719Z,9.88
2023-08-15T12:38:59.100Z,10.20
2023-08-15T12:42:06.466Z,10.23
2023-08-15T12:45:17.207Z,11.60
2023-08-15T12:48:19.556Z,9.23
2023-08-15T12:51:21.854Z,13.30
2023-08-15T12:54:29.833Z,12.73
2023-08-15T12:57:33.414Z,9.90
2023-08-15T13:00:35.776Z,14.75
2023-08-15T13:03:38.043Z,7.50
2023-08-15T13:07:15.492Z,13.48
2023-08-15T13:11:56.348Z,10.48
2023-08-15T13:15:08.025Z,11.15
2023-08-15T13:28:35.861Z,14.38
2023-08-15T13:32:29.221Z,16.30
2023-08-15T13:45:23.256Z,13.57
2023-08-15T13:49:05.560Z,10.88
2023-08-15T13:52:55.834Z,13.23
2023-08-15T14:01:59.307Z,12.57
2023-08-15T14:05:10.707Z,15.50
2023-08-15T14:08:19.381Z,13.23
2023-08-15T14:11:36.552Z,13.80
2023-08-15T14:14:59.344Z,14.60
2023-08-15T14:21:56.881Z,13.85
2023-08-15T14:25:00.042Z,13.57
2023-08-15T14:28:05.827Z,13.25
2023-08-15T14:31:37.856Z,17.42
2023-08-15T14:34:54.280Z,13.50
2023-08-15T14:38:04.698Z,16.02
2023-08-15T14:41:15.653Z,14.65
2023-08-15T14:44:21.269Z,12.68
2023-08-15T14:47:52.621Z,18.27
2023-08-15T14:50:55.553Z,14.18
2023-08-15T14:54:02.018Z,13.68
2023-08-15T14:57:10.650Z,13.93
2023-08-15T15:04:31.634Z,11.82
2023-08-15T15:07:34.515Z,12.07
2023-08-15T15:11:30.696Z,12.80
2023-08-15T15:14:07.210Z,12.55
2023-08-15T15:17:12.401Z,13.38
2023-08-15T15:20:55.655Z,9.52
2023-08-15T15:24:09.243Z,16.52
2023-08-15T15:27:13.294Z,9.18
2023-08-15T15:30:15.844Z,13.52
2023-08-15T15:33:20.048Z,10.60
2023-08-15T15:36:41.496Z,13.40
2023-08-15T15:43:11.947Z,9.60
2023-08-15T15:46:20.364Z,8.95
2023-08-15T15:49:56.884Z,8.90
2023-08-15T15:53:54.557Z,13.20
2023-08-15T15:56:57.238Z,12.95
2023-08-15T16:00:23.346Z,12.60
2023-08-15T16:03:29.033Z,11.75
2023-08-15T16:06:37.132Z,13.55
2023-08-15T16:09:42.634Z,8.90
2023-08-15T16:12:58.897Z,10.50
2023-08-15T16:16:21.876Z,11.60
2023-08-15T16:19:34.634Z,7.60
2023-08-15T16:22:40.588Z,11.45
2023-08-15T16:25:47.892Z,9.35
2023-08-15T16:28:50.746Z,12.10
2023-08-15T16:31:54.572Z,10.52
2023-08-15T16:34:57.115Z,12.50
2023-08-15T16:38:01.574Z,12.68
2023-08-15T16:41:06.920Z,13.48
2023-08-15T16:44:09.289Z,10.27
2023-08-15T16:47:13.392Z,10.63
2023-08-15T16:50:18.114Z,11.50
2023-08-15T16:53:23.250Z,12.88
2023-08-15T16:56:48.416Z,11.98
2023-08-15T16:59:50.750Z,11.05
2023-08-15T17:02:55.272Z,9.07
2023-08-15T17:05:57.857Z,12.73
2023-08-15T17:09:00.358Z,11.45
2023-08-15T17:12:05.090Z,10.07
2023-08-15T17:15:09.106Z,12.75
2023-08-15T17:18:13.008Z,14.82
2023-08-15T17:21:15.561Z,8.52
2023-08-15T17:24:18.024Z,10.95
2023-08-15T17:27:20.766Z,10.70
2023-08-15T17:30:23.449Z,10.68
2023-08-15T17:33:30.129Z,7.85
2023-08-15T17:36:35.682Z,12.00
2023-08-15T17:39:38.196Z,11.65
2023-08-15T17:42:40.812Z,11.20
2023-08-15T17:45:43.611Z,7.35
2023-08-15T17:48:47.557Z,9.77
2023-08-15T17:51:52.534Z,9.65
2023-08-15T17:55:04.552Z,14.95
2023-08-15T17:58:10.712Z,10.90
2023-08-15T18:01:17.225Z,13.48
2023-08-15T18:04:24.504Z,20.42
2023-08-15T18:07:30.143Z,9.80
2023-08-15T18:10:32.836Z,10.02
2023-08-15T18:13:36.953Z,11.25
2023-08-15T18:16:46.881Z,9.32
2023-08-15T18:19:58.227Z,10.10
2023-08-15T18:23:17.560Z,9.98
2023-08-15T18:29:33.158Z,9.70
2023-08-15T18:32:36.419Z,9.63
2023-08-15T18:35:41.771Z,11.82
2023-08-15T18:38:47.281Z,14.60
2023-08-15T18:42:00.718Z,7.32
2023-08-15T18:45:12.928Z,11.20
2023-08-15T18:48:17.274Z,10.15
2023-08-15T18:51:21.455Z,14.20
2023-08-15T18:54:24.432Z,9.00
2023-08-15T18:57:27.478Z,9.45
2023-08-15T19:00:36.685Z,6.97
2023-08-15T19:03:42.906Z,9.55
2023-08-15T19:06:49.716Z,10.32
2023-08-15T19:09:52.346Z,12.60
2023-08-15T19:12:57.952Z,10.63
2023-08-15T19:16:00.869Z,10.52
2023-08-15T19:19:05.352Z,12.43
2023-08-15T19:22:09.368Z,9.68
2023-08-15T19:25:12.757Z,8.93
2023-08-15T19:28:16.499Z,12.40
2023-08-15T19:31:19.140Z,12.23
2023-08-15T19:34:21.656Z,9.38
2023-08-15T19:37:36.176Z,9.38
2023-08-15T19:40:40.906Z,15.63
2023-08-15T19:43:43.348Z,8.30
2023-08-15T19:46:45.928Z,7.82
2023-08-15T19:49:48.527Z,9.88
2023-08-15T19:52:53.040Z,9.25
2023-08-15T19:55:55.711Z,11.55
2023-08-15T19:58:58.404Z,8.80
2023-08-15T20:02:01.036Z,11.60
2023-08-15T20:05:05.097Z,10.15
2023-08-15T20:08:09.226Z,13.82
2023-08-15T20:11:14.262Z,9.57
2023-08-15T20:14:18.886Z,10.02
2023-08-15T20:17:21.665Z,10.63
2023-08-15T20:20:24.441Z,11.75
2023-08-15T20:23:28.264Z,10.68
2023-08-15T20:26:30.971Z,12.50
2023-08-15T20:29:35.964Z,14.75
2023-08-15T20:32:38.790Z,10.32
2023-08-15T20:35:42.201Z,12.20
2023-08-15T20:38:45.920Z,11.48
2023-08-15T20:41:51.569Z,13.10
2023-08-15T20:44:55.833Z,15.32
2023-08-15T20:47:58.263Z,14.32
2023-08-15T20:51:00.941Z,18.33
2023-08-15T20:54:05.334Z,13.00
2023-08-15T20:57:07.919Z,11.73
2023-08-15T21:00:14.486Z,15.05
2023-08-15T21:03:17.026Z,11.25
2023-08-15T21:06:19.509Z,14.60
2023-08-15T21:09:26.563Z,15.35
2023-08-15T21:12:28.944Z,15.77
2023-08-15T21:15:31.569Z,12.45
2023-08-15T21:18:34.061Z,12.00
2023-08-15T21:21:36.703Z,14.60
2023-08-15T21:24:42.229Z,11.98
2023-08-15T21:27:44.678Z,10.55
2023-08-15T21:30:52.365Z,12.82
2023-08-15T21:33:55.446Z,16.40
2023-08-15T21:36:57.724Z,14.52
2023-08-15T21:40:01.460Z,12.95
2023-08-15T21:43:06.112Z,13.20
2023-08-15T21:46:08.570Z,16.67
2023-08-15T21:49:10.895Z,12.27
2023-08-15T21:52:13.261Z,11.10
2023-08-15T21:55:17.079Z,19.00
2023-08-15T21:58:19.383Z,15.98
2023-08-15T22:01:22.214Z,14.18
2023-08-15T22:04:24.593Z,15.27
2023-08-15T22:07:26.827Z,16.63
2023-08-15T22:10:30.408Z,18.90
2023-08-15T22:13:34.100Z,14.55
2023-08-15T22:16:36.415Z,13.68
2023-08-15T22:19:38.765Z,13.98
2023-08-15T22:22:43.675Z,15.98
2023-08-15T22:25:48.101Z,13.20
2023-08-15T22:28:50.471Z,17.38
2023-08-15T22:31:52.790Z,21.70
2023-08-15T22:34:55.284Z,20.80
2023-08-15T22:37:58.935Z,23.85
2023-08-15T22:41:02.701Z,25.70
2023-08-15T22:44:05.184Z,29.35
2023-08-15T22:47:07.388Z,29.92
2023-08-15T22:50:10.938Z,26.90
2023-08-15T22:53:13.275Z,31.48
2023-08-15T22:56:16.935Z,28.55
2023-08-15T22:59:21.096Z,26.10
2023-08-15T23:02:23.401Z,21.17
2023-08-15T23:05:25.671Z,20.63
2023-08-15T23:08:28.050Z,25.75
2023-08-15T23:11:31.849Z,21.88
2023-08-15T23:14:34.115Z,26.50
2023-08-15T23:17:36.440Z,21.92
2023-08-15T23:20:38.829Z,25.00
2023-08-15T23:23:41.312Z,19.60
2023-08-15T23:26:45.039Z,16.20
2023-08-15T23:29:47.457Z,20.63
2023-08-15T23:32:49.907Z,21.60
2023-08-15T23:35:52.287Z,17.52
2023-08-15T23:38:54.690Z,19.48
2023-08-15T23:41:58.304Z,17.30
2023-08-15T23:45:00.610Z,18.42
2023-08-15T23:48:03.063Z,20.55
2023-08-15T23:51:05.483Z,16.92
2023-08-15T23:54:08.900Z,18.05
2023-08-15T23:57:12.902Z,15.18
